Terminal Aerodrome Forecast
Issued by NWS

Home | Current Version | Previous Version | Text Only | Print | Product List | Glossary On
Versions: 1 2 3 4 5 6 7 8 9 10 11 12 13 14 15 16 17 18 19
000
FTUS43 KLSX 291100
TAFUIN
TAF
KUIN 291136Z 2912/3012 VRB03KT P6SM FEW100
     FM291500 04006KT P6SM SCT100
     FM300300 01011KT P6SM SCT030 OVC100=

USA.gov is the U.S. government's official web portal to all federal, state and local government web resources and services.